sensor_id;sensor_type;location;lat;lon;timestamp;temperature;humidity
77039;DHT22;65970;50.476;4.840;2023-07-13T00:00:52;21.80;13.90
77039;DHT22;65970;50.476;4.840;2023-07-13T00:06:00;21.70;14.20
77039;DHT22;65970;50.476;4.840;2023-07-13T00:11:02;21.70;14.40
77039;DHT22;65970;50.476;4.840;2023-07-13T00:16:03;21.70;14.50
77039;DHT22;65970;50.476;4.840;2023-07-13T00:21:04;21.60;14.50
77039;DHT22;65970;50.476;4.840;2023-07-13T00:26:06;21.60;14.50
77039;DHT22;65970;50.476;4.840;2023-07-13T00:31:09;21.50;14.80
77039;DHT22;65970;50.476;4.840;2023-07-13T00:36:10;21.50;14.90
77039;DHT22;65970;50.476;4.840;2023-07-13T00:41:11;21.40;15.00
77039;DHT22;65970;50.476;4.840;2023-07-13T00:46:22;21.40;15.20
77039;DHT22;65970;50.476;4.840;2023-07-13T00:51:56;21.40;15.50
77039;DHT22;65970;50.476;4.840;2023-07-13T00:57:01;21.30;15.70
77039;DHT22;65970;50.476;4.840;2023-07-13T01:02:03;21.30;15.70
77039;DHT22;65970;50.476;4.840;2023-07-13T01:07:05;21.20;15.90
77039;DHT22;65970;50.476;4.840;2023-07-13T01:12:07;21.20;16.20
77039;DHT22;65970;50.476;4.840;2023-07-13T01:17:11;21.20;16.30
77039;DHT22;65970;50.476;4.840;2023-07-13T01:22:14;21.10;16.60
77039;DHT22;65970;50.476;4.840;2023-07-13T01:27:19;21.10;16.60
77039;DHT22;65970;50.476;4.840;2023-07-13T01:32:23;21.00;16.80
77039;DHT22;65970;50.476;4.840;2023-07-13T01:37:26;21.00;16.20
77039;DHT22;65970;50.476;4.840;2023-07-13T01:42:28;21.00;17.30
77039;DHT22;65970;50.476;4.840;2023-07-13T01:47:28;20.90;17.50
77039;DHT22;65970;50.476;4.840;2023-07-13T01:52:29;20.90;17.70
77039;DHT22;65970;50.476;4.840;2023-07-13T01:57:29;20.90;17.50
77039;DHT22;65970;50.476;4.840;2023-07-13T02:02:30;20.80;17.70
77039;DHT22;65970;50.476;4.840;2023-07-13T02:07:31;20.80;17.70
77039;DHT22;65970;50.476;4.840;2023-07-13T02:12:32;20.70;17.80
77039;DHT22;65970;50.476;4.840;2023-07-13T02:17:34;20.70;18.00
77039;DHT22;65970;50.476;4.840;2023-07-13T02:22:35;20.60;18.00
77039;DHT22;65970;50.476;4.840;2023-07-13T02:27:36;20.60;18.30
77039;DHT22;65970;50.476;4.840;2023-07-13T02:32:36;20.60;18.50
77039;DHT22;65970;50.476;4.840;2023-07-13T02:37:37;20.50;18.30
77039;DHT22;65970;50.476;4.840;2023-07-13T02:42:37;20.50;18.70
77039;DHT22;65970;50.476;4.840;2023-07-13T02:47:41;20.40;18.70
77039;DHT22;65970;50.476;4.840;2023-07-13T02:52:41;20.40;18.80
77039;DHT22;65970;50.476;4.840;2023-07-13T02:57:42;20.40;19.00
77039;DHT22;65970;50.476;4.840;2023-07-13T03:02:42;20.40;18.90
77039;DHT22;65970;50.476;4.840;2023-07-13T03:07:43;20.30;18.70
77039;DHT22;65970;50.476;4.840;2023-07-13T03:12:43;20.30;19.60
77039;DHT22;65970;50.476;4.840;2023-07-13T03:17:44;20.20;19.00
77039;DHT22;65970;50.476;4.840;2023-07-13T03:22:45;20.20;19.30
77039;DHT22;65970;50.476;4.840;2023-07-13T03:27:45;20.20;19.30
77039;DHT22;65970;50.476;4.840;2023-07-13T03:32:46;20.10;20.10
77039;DHT22;65970;50.476;4.840;2023-07-13T03:37:46;20.10;19.40
77039;DHT22;65970;50.476;4.840;2023-07-13T03:42:47;20.10;19.40
77039;DHT22;65970;50.476;4.840;2023-07-13T03:47:47;20.00;19.80
77039;DHT22;65970;50.476;4.840;2023-07-13T03:52:48;20.00;19.90
77039;DHT22;65970;50.476;4.840;2023-07-13T03:57:57;20.00;19.30
77039;DHT22;65970;50.476;4.840;2023-07-13T04:02:58;19.90;20.20
77039;DHT22;65970;50.476;4.840;2023-07-13T04:07:58;19.90;20.50
77039;DHT22;65970;50.476;4.840;2023-07-13T04:12:59;19.90;19.10
77039;DHT22;65970;50.476;4.840;2023-07-13T04:18:00;19.90;19.80
77039;DHT22;65970;50.476;4.840;2023-07-13T04:23:00;19.90;19.90
77039;DHT22;65970;50.476;4.840;2023-07-13T04:28:02;19.80;20.70
77039;DHT22;65970;50.476;4.840;2023-07-13T04:33:03;19.80;19.80
77039;DHT22;65970;50.476;4.840;2023-07-13T04:38:03;19.80;19.20
77039;DHT22;65970;50.476;4.840;2023-07-13T04:43:04;19.80;20.50
77039;DHT22;65970;50.476;4.840;2023-07-13T04:48:05;19.80;20.30
77039;DHT22;65970;50.476;4.840;2023-07-13T04:53:05;19.70;19.60
77039;DHT22;65970;50.476;4.840;2023-07-13T04:58:06;19.70;20.30
77039;DHT22;65970;50.476;4.840;2023-07-13T05:03:07;19.70;20.80
77039;DHT22;65970;50.476;4.840;2023-07-13T05:08:07;19.70;19.90
77039;DHT22;65970;50.476;4.840;2023-07-13T05:13:08;19.70;20.50
77039;DHT22;65970;50.476;4.840;2023-07-13T05:18:08;19.70;20.20
77039;DHT22;65970;50.476;4.840;2023-07-13T05:23:09;19.70;19.90
77039;DHT22;65970;50.476;4.840;2023-07-13T05:28:09;19.60;19.80
77039;DHT22;65970;50.476;4.840;2023-07-13T05:33:10;19.70;19.90
77039;DHT22;65970;50.476;4.840;2023-07-13T05:38:11;19.60;19.60
77039;DHT22;65970;50.476;4.840;2023-07-13T05:43:12;19.70;19.80
77039;DHT22;65970;50.476;4.840;2023-07-13T05:48:12;19.60;19.60
77039;DHT22;65970;50.476;4.840;2023-07-13T05:53:13;19.70;19.40
77039;DHT22;65970;50.476;4.840;2023-07-13T05:58:15;19.70;19.70
77039;DHT22;65970;50.476;4.840;2023-07-13T06:03:16;19.70;18.10
77039;DHT22;65970;50.476;4.840;2023-07-13T06:08:17;19.70;19.20
77039;DHT22;65970;50.476;4.840;2023-07-13T06:13:17;19.70;19.80
77039;DHT22;65970;50.476;4.840;2023-07-13T06:18:18;19.70;19.90
77039;DHT22;65970;50.476;4.840;2023-07-13T06:23:18;19.70;19.70
77039;DHT22;65970;50.476;4.840;2023-07-13T06:28:19;19.70;19.50
77039;DHT22;65970;50.476;4.840;2023-07-13T06:33:19;19.80;20.00
77039;DHT22;65970;50.476;4.840;2023-07-13T06:38:20;19.80;19.80
77039;DHT22;65970;50.476;4.840;2023-07-13T06:43:21;19.80;20.50
77039;DHT22;65970;50.476;4.840;2023-07-13T06:48:22;19.80;20.80
77039;DHT22;65970;50.476;4.840;2023-07-13T06:53:23;19.80;19.90
77039;DHT22;65970;50.476;4.840;2023-07-13T06:58:23;19.80;20.40
77039;DHT22;65970;50.476;4.840;2023-07-13T07:03:24;19.90;19.70
77039;DHT22;65970;50.476;4.840;2023-07-13T07:08:24;19.90;20.90
77039;DHT22;65970;50.476;4.840;2023-07-13T07:13:25;20.00;20.90
77039;DHT22;65970;50.476;4.840;2023-07-13T07:18:25;20.00;20.90
77039;DHT22;65970;50.476;4.840;2023-07-13T07:23:26;20.00;20.80
77039;DHT22;65970;50.476;4.840;2023-07-13T07:28:27;20.00;20.80
77039;DHT22;65970;50.476;4.840;2023-07-13T07:33:27;20.10;20.30
77039;DHT22;65970;50.476;4.840;2023-07-13T07:38:28;20.10;20.60
77039;DHT22;65970;50.476;4.840;2023-07-13T07:43:28;20.10;20.50
77039;DHT22;65970;50.476;4.840;2023-07-13T07:48:29;20.10;20.50
77039;DHT22;65970;50.476;4.840;2023-07-13T07:53:30;20.20;20.20
77039;DHT22;65970;50.476;4.840;2023-07-13T07:58:30;20.20;20.80
77039;DHT22;65970;50.476;4.840;2023-07-13T08:03:31;20.30;20.90
77039;DHT22;65970;50.476;4.840;2023-07-13T08:08:32;20.40;20.70
77039;DHT22;65970;50.476;4.840;2023-07-13T08:13:32;20.40;21.20
77039;DHT22;65970;50.476;4.840;2023-07-13T08:18:33;20.50;21.00
77039;DHT22;65970;50.476;4.840;2023-07-13T08:23:35;20.50;22.30
77039;DHT22;65970;50.476;4.840;2023-07-13T08:28:36;20.50;22.00
77039;DHT22;65970;50.476;4.840;2023-07-13T08:33:36;20.60;22.30
77039;DHT22;65970;50.476;4.840;2023-07-13T08:38:37;20.70;21.50
77039;DHT22;65970;50.476;4.840;2023-07-13T08:43:38;20.70;21.90
77039;DHT22;65970;50.476;4.840;2023-07-13T08:49:10;20.70;22.00
77039;DHT22;65970;50.476;4.840;2023-07-13T08:54:44;20.80;21.40
77039;DHT22;65970;50.476;4.840;2023-07-13T08:59:46;20.90;21.80
77039;DHT22;65970;50.476;4.840;2023-07-13T09:04:59;20.80;21.10
77039;DHT22;65970;50.476;4.840;2023-07-13T09:10:17;20.90;21.30
77039;DHT22;65970;50.476;4.840;2023-07-13T09:20:34;21.00;20.70
77039;DHT22;65970;50.476;4.840;2023-07-13T09:25:36;21.00;20.80
77039;DHT22;65970;50.476;4.840;2023-07-13T09:36:25;21.10;21.00
77039;DHT22;65970;50.476;4.840;2023-07-13T09:46:35;21.20;20.70
77039;DHT22;65970;50.476;4.840;2023-07-13T09:51:38;21.20;20.80
77039;DHT22;65970;50.476;4.840;2023-07-13T09:56:38;21.30;21.70
77039;DHT22;65970;50.476;4.840;2023-07-13T10:01:39;21.30;19.00
77039;DHT22;65970;50.476;4.840;2023-07-13T10:06:40;21.30;20.20
77039;DHT22;65970;50.476;4.840;2023-07-13T10:11:41;21.40;20.80
77039;DHT22;65970;50.476;4.840;2023-07-13T10:16:44;21.40;20.20
77039;DHT22;65970;50.476;4.840;2023-07-13T10:21:57;21.50;19.70
77039;DHT22;65970;50.476;4.840;2023-07-13T10:32:10;21.60;20.10
77039;DHT22;65970;50.476;4.840;2023-07-13T10:37:39;21.70;19.60
77039;DHT22;65970;50.476;4.840;2023-07-13T10:42:45;21.70;20.00
77039;DHT22;65970;50.476;4.840;2023-07-13T10:47:49;21.70;19.70
77039;DHT22;65970;50.476;4.840;2023-07-13T10:52:53;21.80;19.70
77039;DHT22;65970;50.476;4.840;2023-07-13T10:57:53;21.80;20.00
77039;DHT22;65970;50.476;4.840;2023-07-13T11:02:59;21.80;19.50
77039;DHT22;65970;50.476;4.840;2023-07-13T11:08:16;21.90;19.50
77039;DHT22;65970;50.476;4.840;2023-07-13T11:13:36;21.90;19.50
77039;DHT22;65970;50.476;4.840;2023-07-13T11:18:37;22.00;19.40
77039;DHT22;65970;50.476;4.840;2023-07-13T11:23:42;22.00;19.40
77039;DHT22;65970;50.476;4.840;2023-07-13T11:28:46;22.10;19.60
77039;DHT22;65970;50.476;4.840;2023-07-13T11:33:52;22.20;19.70
77039;DHT22;65970;50.476;4.840;2023-07-13T11:44:30;22.30;19.00
77039;DHT22;65970;50.476;4.840;2023-07-13T11:49:32;22.30;18.90
77039;DHT22;65970;50.476;4.840;2023-07-13T11:54:34;22.40;18.90
77039;DHT22;65970;50.476;4.840;2023-07-13T11:59:43;22.50;19.00
77039;DHT22;65970;50.476;4.840;2023-07-13T12:04:44;22.50;18.90
77039;DHT22;65970;50.476;4.840;2023-07-13T12:09:45;22.60;18.80
77039;DHT22;65970;50.476;4.840;2023-07-13T12:14:46;22.70;18.70
77039;DHT22;65970;50.476;4.840;2023-07-13T12:19:48;22.70;18.50
77039;DHT22;65970;50.476;4.840;2023-07-13T12:24:49;22.80;18.30
77039;DHT22;65970;50.476;4.840;2023-07-13T12:30:04;22.90;18.50
77039;DHT22;65970;50.476;4.840;2023-07-13T12:35:16;23.00;18.30
77039;DHT22;65970;50.476;4.840;2023-07-13T12:40:19;23.10;18.20
77039;DHT22;65970;50.476;4.840;2023-07-13T12:45:25;23.10;18.20
77039;DHT22;65970;50.476;4.840;2023-07-13T12:50:47;23.20;18.20
77039;DHT22;65970;50.476;4.840;2023-07-13T12:55:54;23.30;18.10
77039;DHT22;65970;50.476;4.840;2023-07-13T13:00:58;23.30;18.10
77039;DHT22;65970;50.476;4.840;2023-07-13T13:06:03;23.30;18.00
77039;DHT22;65970;50.476;4.840;2023-07-13T13:11:03;23.30;17.90
77039;DHT22;65970;50.476;4.840;2023-07-13T13:16:23;23.40;17.90
77039;DHT22;65970;50.476;4.840;2023-07-13T13:21:25;23.40;18.00
77039;DHT22;65970;50.476;4.840;2023-07-13T13:26:26;23.50;17.90
77039;DHT22;65970;50.476;4.840;2023-07-13T13:31:26;23.60;17.90
77039;DHT22;65970;50.476;4.840;2023-07-13T13:36:27;23.60;17.90
77039;DHT22;65970;50.476;4.840;2023-07-13T13:41:27;23.60;17.80
77039;DHT22;65970;50.476;4.840;2023-07-13T13:46:28;23.60;17.40
77039;DHT22;65970;50.476;4.840;2023-07-13T13:51:29;23.70;17.70
77039;DHT22;65970;50.476;4.840;2023-07-13T13:56:29;23.70;17.60
77039;DHT22;65970;50.476;4.840;2023-07-13T14:01:31;23.80;17.50
77039;DHT22;65970;50.476;4.840;2023-07-13T14:06:32;23.90;17.60
77039;DHT22;65970;50.476;4.840;2023-07-13T14:11:33;23.90;17.50
77039;DHT22;65970;50.476;4.840;2023-07-13T14:16:34;23.90;17.50
77039;DHT22;65970;50.476;4.840;2023-07-13T14:21:35;23.90;17.40
77039;DHT22;65970;50.476;4.840;2023-07-13T14:26:40;23.90;17.50
77039;DHT22;65970;50.476;4.840;2023-07-13T14:31:41;23.90;17.40
77039;DHT22;65970;50.476;4.840;2023-07-13T14:36:44;23.90;17.50
77039;DHT22;65970;50.476;4.840;2023-07-13T14:41:46;23.80;17.40
77039;DHT22;65970;50.476;4.840;2023-07-13T14:46:47;23.80;17.60
77039;DHT22;65970;50.476;4.840;2023-07-13T14:51:48;23.80;17.70
77039;DHT22;65970;50.476;4.840;2023-07-13T14:56:49;23.80;17.90
77039;DHT22;65970;50.476;4.840;2023-07-13T15:01:49;23.80;18.00
77039;DHT22;65970;50.476;4.840;2023-07-13T15:07:01;23.80;17.90
77039;DHT22;65970;50.476;4.840;2023-07-13T15:12:02;23.80;17.30
77039;DHT22;65970;50.476;4.840;2023-07-13T15:17:03;23.80;17.60
77039;DHT22;65970;50.476;4.840;2023-07-13T15:22:04;23.80;17.80
77039;DHT22;65970;50.476;4.840;2023-07-13T15:27:10;23.90;17.90
77039;DHT22;65970;50.476;4.840;2023-07-13T15:32:13;23.90;17.90
77039;DHT22;65970;50.476;4.840;2023-07-13T15:37:15;23.90;17.00
77039;DHT22;65970;50.476;4.840;2023-07-13T15:42:18;24.00;16.50
77039;DHT22;65970;50.476;4.840;2023-07-13T15:47:19;23.90;16.90
77039;DHT22;65970;50.476;4.840;2023-07-13T15:52:22;24.00;17.20
77039;DHT22;65970;50.476;4.840;2023-07-13T15:57:24;24.00;17.20
77039;DHT22;65970;50.476;4.840;2023-07-13T16:02:24;24.00;16.50
77039;DHT22;65970;50.476;4.840;2023-07-13T16:07:25;24.10;16.00
77039;DHT22;65970;50.476;4.840;2023-07-13T16:12:25;24.10;16.40
77039;DHT22;65970;50.476;4.840;2023-07-13T16:17:26;24.10;16.30
77039;DHT22;65970;50.476;4.840;2023-07-13T16:22:26;24.10;15.60
77039;DHT22;65970;50.476;4.840;2023-07-13T16:27:27;24.10;16.30
77039;DHT22;65970;50.476;4.840;2023-07-13T16:32:28;24.10;15.30
77039;DHT22;65970;50.476;4.840;2023-07-13T16:37:29;24.20;16.20
77039;DHT22;65970;50.476;4.840;2023-07-13T16:42:29;24.20;15.80
77039;DHT22;65970;50.476;4.840;2023-07-13T16:47:30;24.20;15.30
77039;DHT22;65970;50.476;4.840;2023-07-13T16:52:31;24.30;15.30
77039;DHT22;65970;50.476;4.840;2023-07-13T16:57:33;24.30;15.80
77039;DHT22;65970;50.476;4.840;2023-07-13T17:02:36;24.30;14.30
77039;DHT22;65970;50.476;4.840;2023-07-13T17:07:37;24.40;15.90
77039;DHT22;65970;50.476;4.840;2023-07-13T17:12:37;24.40;15.80
77039;DHT22;65970;50.476;4.840;2023-07-13T17:17:38;24.40;15.50
77039;DHT22;65970;50.476;4.840;2023-07-13T17:22:39;24.40;14.50
77039;DHT22;65970;50.476;4.840;2023-07-13T17:27:40;24.40;16.00
77039;DHT22;65970;50.476;4.840;2023-07-13T17:32:41;24.40;15.60
77039;DHT22;65970;50.476;4.840;2023-07-13T17:37:42;24.40;15.50
77039;DHT22;65970;50.476;4.840;2023-07-13T17:42:46;24.30;15.60
77039;DHT22;65970;50.476;4.840;2023-07-13T17:47:47;24.30;15.80
77039;DHT22;65970;50.476;4.840;2023-07-13T17:52:48;24.30;16.20
77039;DHT22;65970;50.476;4.840;2023-07-13T17:57:49;24.30;15.20
77039;DHT22;65970;50.476;4.840;2023-07-13T18:02:50;24.30;15.50
77039;DHT22;65970;50.476;4.840;2023-07-13T18:07:51;24.30;15.50
77039;DHT22;65970;50.476;4.840;2023-07-13T18:12:53;24.20;15.20
77039;DHT22;65970;50.476;4.840;2023-07-13T18:17:53;24.20;14.80
77039;DHT22;65970;50.476;4.840;2023-07-13T18:22:54;24.20;15.10
77039;DHT22;65970;50.476;4.840;2023-07-13T18:27:54;24.20;15.20
77039;DHT22;65970;50.476;4.840;2023-07-13T18:32:55;24.10;15.40
77039;DHT22;65970;50.476;4.840;2023-07-13T18:37:56;24.10;15.40
77039;DHT22;65970;50.476;4.840;2023-07-13T18:42:58;24.10;15.50
77039;DHT22;65970;50.476;4.840;2023-07-13T18:47:58;24.10;15.90
77039;DHT22;65970;50.476;4.840;2023-07-13T18:52:59;24.10;15.70
77039;DHT22;65970;50.476;4.840;2023-07-13T18:57:59;24.10;15.90
77039;DHT22;65970;50.476;4.840;2023-07-13T19:03:01;24.00;15.50
77039;DHT22;65970;50.476;4.840;2023-07-13T19:08:08;24.00;15.30
77039;DHT22;65970;50.476;4.840;2023-07-13T19:13:20;23.90;15.10
77039;DHT22;65970;50.476;4.840;2023-07-13T19:18:23;23.90;15.00
77039;DHT22;65970;50.476;4.840;2023-07-13T19:23:33;23.90;15.10
77039;DHT22;65970;50.476;4.840;2023-07-13T19:28:37;23.90;15.10
77039;DHT22;65970;50.476;4.840;2023-07-13T19:33:38;23.90;15.20
77039;DHT22;65970;50.476;4.840;2023-07-13T19:38:39;23.80;15.30
77039;DHT22;65970;50.476;4.840;2023-07-13T19:43:40;23.80;15.40
77039;DHT22;65970;50.476;4.840;2023-07-13T19:48:40;23.80;15.20
77039;DHT22;65970;50.476;4.840;2023-07-13T19:53:41;23.80;15.20
77039;DHT22;65970;50.476;4.840;2023-07-13T19:58:41;23.70;15.20
77039;DHT22;65970;50.476;4.840;2023-07-13T20:03:42;23.70;15.20
77039;DHT22;65970;50.476;4.840;2023-07-13T20:08:42;23.60;15.40
77039;DHT22;65970;50.476;4.840;2023-07-13T20:13:43;23.70;15.40
77039;DHT22;65970;50.476;4.840;2023-07-13T20:18:44;23.60;15.30
77039;DHT22;65970;50.476;4.840;2023-07-13T20:23:44;23.60;15.20
77039;DHT22;65970;50.476;4.840;2023-07-13T20:28:45;23.50;15.30
77039;DHT22;65970;50.476;4.840;2023-07-13T20:33:45;23.50;15.20
77039;DHT22;65970;50.476;4.840;2023-07-13T20:38:46;23.50;15.30
77039;DHT22;65970;50.476;4.840;2023-07-13T20:43:48;23.50;15.50
77039;DHT22;65970;50.476;4.840;2023-07-13T20:48:50;23.40;15.50
77039;DHT22;65970;50.476;4.840;2023-07-13T20:53:51;23.40;15.50
77039;DHT22;65970;50.476;4.840;2023-07-13T20:58:51;23.40;15.60
77039;DHT22;65970;50.476;4.840;2023-07-13T21:03:55;23.30;15.60
77039;DHT22;65970;50.476;4.840;2023-07-13T21:08:57;23.30;15.80
77039;DHT22;65970;50.476;4.840;2023-07-13T21:13:58;23.30;15.80
77039;DHT22;65970;50.476;4.840;2023-07-13T21:18:59;23.30;15.90
77039;DHT22;65970;50.476;4.840;2023-07-13T21:23:59;23.20;15.80
77039;DHT22;65970;50.476;4.840;2023-07-13T21:29:00;23.20;15.90
77039;DHT22;65970;50.476;4.840;2023-07-13T21:34:10;23.20;15.90
77039;DHT22;65970;50.476;4.840;2023-07-13T21:39:16;23.10;16.10
77039;DHT22;65970;50.476;4.840;2023-07-13T21:49:18;23.00;16.00
77039;DHT22;65970;50.476;4.840;2023-07-13T21:54:20;23.00;16.10
77039;DHT22;65970;50.476;4.840;2023-07-13T21:59:25;23.00;16.10
77039;DHT22;65970;50.476;4.840;2023-07-13T22:04:27;23.00;16.20
77039;DHT22;65970;50.476;4.840;2023-07-13T22:09:29;22.90;16.30
77039;DHT22;65970;50.476;4.840;2023-07-13T22:14:30;22.90;16.40
77039;DHT22;65970;50.476;4.840;2023-07-13T22:19:31;22.80;16.50
77039;DHT22;65970;50.476;4.840;2023-07-13T22:24:32;22.80;16.50
77039;DHT22;65970;50.476;4.840;2023-07-13T22:29:33;22.80;16.60
77039;DHT22;65970;50.476;4.840;2023-07-13T22:34:33;22.70;16.70
77039;DHT22;65970;50.476;4.840;2023-07-13T22:39:34;22.70;16.80
77039;DHT22;65970;50.476;4.840;2023-07-13T22:44:34;22.70;16.80
77039;DHT22;65970;50.476;4.840;2023-07-13T22:49:35;22.60;17.00
77039;DHT22;65970;50.476;4.840;2023-07-13T22:54:36;22.60;17.30
77039;DHT22;65970;50.476;4.840;2023-07-13T22:59:36;22.60;17.30
77039;DHT22;65970;50.476;4.840;2023-07-13T23:04:37;22.50;17.40
77039;DHT22;65970;50.476;4.840;2023-07-13T23:09:37;22.50;17.50
77039;DHT22;65970;50.476;4.840;2023-07-13T23:14:38;22.50;16.40
77039;DHT22;65970;50.476;4.840;2023-07-13T23:19:38;22.40;17.60
77039;DHT22;65970;50.476;4.840;2023-07-13T23:24:39;22.40;17.60
77039;DHT22;65970;50.476;4.840;2023-07-13T23:29:39;22.40;17.70
77039;DHT22;65970;50.476;4.840;2023-07-13T23:34:40;22.30;17.80
77039;DHT22;65970;50.476;4.840;2023-07-13T23:39:41;22.30;18.00
77039;DHT22;65970;50.476;4.840;2023-07-13T23:44:41;22.30;18.10
77039;DHT22;65970;50.476;4.840;2023-07-13T23:49:42;22.20;18.10
77039;DHT22;65970;50.476;4.840;2023-07-13T23:54:42;22.20;18.20
77039;DHT22;65970;50.476;4.840;2023-07-13T23:59:43;22.10;18.20
